Time;durP1;ratioP1;P1;durP2;ratioP2;P2;SDS_P1;SDS_P2;PMS_P1;PMS_P2;Temp;Humidity;BMP_temperature;BMP_pressure;BME280_temperature;BME280_humidity;BME280_pressure;Samples;Min_cycle;Max_cycle;Signal;HPM_P1;HPM_P2
2023/10/24 00:01:19;;;;;;;;;;;10.40;99.90;;;;;;5176087;27;19923;-40
2023/10/24 00:03:44;;;;;;;;;;;10.30;99.90;;;;;;5176325;27;19923;-40
2023/10/24 00:06:10;;;;;;;;;;;10.40;99.90;;;;;;5176165;27;19970;-40
2023/10/24 00:08:35;;;;;;;;;;;10.40;99.90;;;;;;5176168;27;19930;-40
2023/10/24 00:11:02;;;;;;;;;;;10.40;99.90;;;;;;5176177;27;19967;-40
2023/10/24 00:13:28;;;;;;;;;;;10.40;99.90;;;;;;5176258;27;19948;-40
2023/10/24 00:15:53;;;;;;;;;;;10.40;99.90;;;;;;5175979;27;19926;-40
2023/10/24 00:18:19;;;;;;;;;;;10.40;99.90;;;;;;5176322;27;19923;-40
2023/10/24 00:20:44;;;;;;;;;;;10.30;99.90;;;;;;5179717;27;19923;-40
2023/10/24 00:23:10;;;;;;;;;;;10.40;99.90;;;;;;5179693;27;19943;-40
2023/10/24 00:25:36;;;;;;;;;;;10.30;99.90;;;;;;5180205;27;19976;-40
2023/10/24 00:28:01;;;;;;;;;;;10.30;99.90;;;;;;5179698;27;20396;-40
2023/10/24 00:30:27;;;;;;;;;;;10.30;99.90;;;;;;5179505;27;20280;-40
2023/10/24 00:32:53;;;;;;;;;;;10.30;99.90;;;;;;5179386;27;20350;-41
2023/10/24 00:35:18;;;;;;;;;;;10.30;99.90;;;;;;5180229;27;19962;-40
2023/10/24 00:37:44;;;;;;;;;;;10.30;99.90;;;;;;5179613;27;20442;-40
2023/10/24 00:40:10;;;;;;;;;;;10.20;99.90;;;;;;5179551;27;19923;-40
2023/10/24 00:42:35;;;;;;;;;;;10.30;99.90;;;;;;5179607;27;19922;-40
2023/10/24 00:45:01;;;;;;;;;;;10.30;99.90;;;;;;5179294;27;20400;-41
2023/10/24 00:47:26;;;;;;;;;;;10.30;99.90;;;;;;5179496;27;19967;-40
2023/10/24 00:49:52;;;;;;;;;;;10.30;99.90;;;;;;5179256;27;20017;-41
2023/10/24 00:52:18;;;;;;;;;;;10.30;99.90;;;;;;5179274;27;19922;-40
2023/10/24 00:54:44;;;;;;;;;;;10.30;99.90;;;;;;5179536;27;19983;-40
2023/10/24 00:57:12;;;;;;;;;;;10.30;99.90;;;;;;5179314;27;19975;-40
2023/10/24 00:59:40;;;;;;;;;;;10.30;99.90;;;;;;5160727;27;19971;-40
2023/10/24 01:02:06;;;;;;;;;;;10.30;99.90;;;;;;5178886;27;19930;-40
2023/10/24 01:04:32;;;;;;;;;;;10.30;99.90;;;;;;5179112;27;19923;-40
2023/10/24 01:06:59;;;;;;;;;;;10.30;99.90;;;;;;5160471;27;20266;-41
2023/10/24 01:09:25;;;;;;;;;;;10.30;99.90;;;;;;5178872;27;20018;-41
2023/10/24 01:11:52;;;;;;;;;;;10.30;99.90;;;;;;5178686;27;19930;-40
2023/10/24 01:14:18;;;;;;;;;;;10.30;99.90;;;;;;5178858;27;19945;-41
2023/10/24 01:16:44;;;;;;;;;;;10.30;99.90;;;;;;5178901;27;19927;-41
2023/10/24 01:19:10;;;;;;;;;;;10.30;99.90;;;;;;5178734;27;20373;-40
2023/10/24 01:21:35;;;;;;;;;;;10.30;99.90;;;;;;5178935;27;19927;-40
2023/10/24 01:24:01;;;;;;;;;;;10.30;99.90;;;;;;5178723;27;19922;-40
2023/10/24 01:26:27;;;;;;;;;;;10.30;99.90;;;;;;5160472;27;19923;-40
2023/10/24 01:28:53;;;;;;;;;;;10.30;99.90;;;;;;5160041;27;19927;-41
2023/10/24 01:31:18;;;;;;;;;;;10.30;99.90;;;;;;5178015;27;19970;-40
2023/10/24 01:33:44;;;;;;;;;;;10.30;99.90;;;;;;5178299;27;19980;-41
2023/10/24 01:36:10;;;;;;;;;;;10.20;99.90;;;;;;5178469;27;19922;-40
2023/10/24 01:38:35;;;;;;;;;;;10.30;99.90;;;;;;5178370;27;20392;-40
2023/10/24 01:41:01;;;;;;;;;;;10.30;99.90;;;;;;5178315;27;19923;-40
2023/10/24 01:43:27;;;;;;;;;;;10.20;99.90;;;;;;5178175;27;20035;-41
2023/10/24 01:45:53;;;;;;;;;;;10.20;99.90;;;;;;5178311;27;19926;-41
2023/10/24 01:48:18;;;;;;;;;;;10.20;99.90;;;;;;5178535;27;20421;-40
2023/10/24 01:50:44;;;;;;;;;;;10.30;99.90;;;;;;5177894;27;19930;-40
2023/10/24 01:53:09;;;;;;;;;;;10.20;99.90;;;;;;5178532;27;19923;-40
2023/10/24 01:55:35;;;;;;;;;;;10.20;99.90;;;;;;5178182;27;19922;-40
2023/10/24 01:58:00;;;;;;;;;;;10.30;99.90;;;;;;5159150;27;19922;-41
2023/10/24 02:00:26;;;;;;;;;;;10.20;99.90;;;;;;5159196;27;19927;-41
2023/10/24 02:02:53;;;;;;;;;;;10.20;99.90;;;;;;5177917;27;19930;-40
2023/10/24 02:05:19;;;;;;;;;;;10.20;99.90;;;;;;5177900;27;20358;-40
2023/10/24 02:07:45;;;;;;;;;;;10.20;99.90;;;;;;5177813;27;19923;-40
2023/10/24 02:10:10;;;;;;;;;;;10.20;99.90;;;;;;5177782;27;19930;-40
2023/10/24 02:12:36;;;;;;;;;;;10.20;99.90;;;;;;5177508;27;19977;-40
2023/10/24 02:15:02;;;;;;;;;;;10.20;99.90;;;;;;5177452;27;20025;-40
2023/10/24 02:17:27;;;;;;;;;;;10.20;99.90;;;;;;5178028;27;19923;-40
2023/10/24 02:19:53;;;;;;;;;;;10.20;99.90;;;;;;5177395;27;19927;-40
2023/10/24 02:22:19;;;;;;;;;;;10.20;99.90;;;;;;5177438;27;20017;-40
2023/10/24 02:24:44;;;;;;;;;;;10.20;99.90;;;;;;5177674;27;20017;-40
2023/10/24 02:27:10;;;;;;;;;;;10.20;99.90;;;;;;5177422;27;20404;-42
2023/10/24 02:29:35;;;;;;;;;;;10.20;99.90;;;;;;5177084;27;20334;-40
2023/10/24 02:32:02;;;;;;;;;;;10.20;99.90;;;;;;5177740;27;20363;-40
2023/10/24 02:34:28;;;;;;;;;;;10.20;99.90;;;;;;5158962;27;20288;-40
2023/10/24 02:36:53;;;;;;;;;;;10.20;99.90;;;;;;5177338;27;19927;-40
2023/10/24 02:39:20;;;;;;;;;;;10.20;99.90;;;;;;5177073;27;19923;-40
2023/10/24 02:41:46;;;;;;;;;;;10.20;99.90;;;;;;5176741;27;19929;-42
2023/10/24 02:44:12;;;;;;;;;;;10.30;99.90;;;;;;5176414;27;19926;-41
2023/10/24 02:46:37;;;;;;;;;;;10.30;99.90;;;;;;5177141;27;20395;-40
2023/10/24 02:49:03;;;;;;;;;;;10.30;99.90;;;;;;5177055;27;19934;-41
2023/10/24 02:51:28;;;;;;;;;;;10.30;99.90;;;;;;5176966;27;19922;-40
2023/10/24 02:53:54;;;;;;;;;;;10.30;99.90;;;;;;5177128;27;19929;-40
2023/10/24 02:56:19;;;;;;;;;;;10.30;99.90;;;;;;5158377;27;20392;-40
2023/10/24 02:58:45;;;;;;;;;;;10.30;99.90;;;;;;5176642;27;19922;-40
2023/10/24 03:01:11;;;;;;;;;;;10.30;99.90;;;;;;5158289;27;19974;-40
2023/10/24 03:03:37;;;;;;;;;;;10.30;99.90;;;;;;5176687;27;19923;-41
2023/10/24 03:06:12;;;;;;;;;;;10.30;99.90;;;;;;5176624;27;19929;-40
2023/10/24 03:08:37;;;;;;;;;;;10.40;99.90;;;;;;5176741;27;20017;-40
2023/10/24 03:11:03;;;;;;;;;;;10.40;99.90;;;;;;5176542;27;20429;-41
2023/10/24 03:13:28;;;;;;;;;;;10.40;99.90;;;;;;5177020;27;20376;-40
2023/10/24 03:15:54;;;;;;;;;;;10.40;99.90;;;;;;5176646;27;20366;-40
2023/10/24 03:18:19;;;;;;;;;;;10.40;99.90;;;;;;5176751;27;20258;-40
2023/10/24 03:20:45;;;;;;;;;;;10.40;99.90;;;;;;5176707;27;20317;-40
2023/10/24 03:23:11;;;;;;;;;;;10.40;99.90;;;;;;5176674;27;19930;-40
2023/10/24 03:25:40;;;;;;;;;;;10.40;99.90;;;;;;5176458;27;19930;-40
2023/10/24 03:28:06;;;;;;;;;;;10.40;99.90;;;;;;5158320;27;19922;-40
2023/10/24 03:30:31;;;;;;;;;;;10.50;99.90;;;;;;5176567;27;19923;-41
2023/10/24 03:32:57;;;;;;;;;;;10.50;99.90;;;;;;5176593;27;20014;-40
2023/10/24 03:35:22;;;;;;;;;;;10.50;99.90;;;;;;5176264;27;19923;-40
2023/10/24 03:37:48;;;;;;;;;;;10.50;99.90;;;;;;5176576;27;19922;-40
2023/10/24 03:40:13;;;;;;;;;;;10.50;99.90;;;;;;5176393;27;19927;-41
2023/10/24 03:42:39;;;;;;;;;;;10.50;99.90;;;;;;5176202;27;20014;-40
2023/10/24 03:45:05;;;;;;;;;;;10.50;99.90;;;;;;5176661;27;19923;-40
2023/10/24 03:47:30;;;;;;;;;;;10.60;99.90;;;;;;5176357;27;20392;-40
2023/10/24 03:49:56;;;;;;;;;;;10.60;99.90;;;;;;5175788;27;20366;-40
2023/10/24 03:52:21;;;;;;;;;;;10.60;99.90;;;;;;5175966;27;20357;-40
2023/10/24 03:54:47;;;;;;;;;;;10.60;99.90;;;;;;5178569;27;19926;-42
2023/10/24 03:57:12;;;;;;;;;;;10.60;99.90;;;;;;5180201;27;20437;-40
2023/10/24 03:59:38;;;;;;;;;;;10.60;99.90;;;;;;5162655;27;20329;-40
2023/10/24 04:02:03;;;;;;;;;;;10.60;99.90;;;;;;5180355;27;19926;-41
2023/10/24 04:04:30;;;;;;;;;;;10.70;99.90;;;;;;5180166;27;19970;-42
2023/10/24 04:06:55;;;;;;;;;;;10.70;99.90;;;;;;5180153;27;19922;-41
2023/10/24 04:09:21;;;;;;;;;;;10.60;99.90;;;;;;5179914;27;19975;-41
2023/10/24 04:11:47;;;;;;;;;;;10.70;99.90;;;;;;5180042;27;19934;-41
2023/10/24 04:14:12;;;;;;;;;;;10.70;99.90;;;;;;5161560;27;19929;-41
2023/10/24 04:16:38;;;;;;;;;;;10.70;99.90;;;;;;5180299;27;19923;-41
2023/10/24 04:19:03;;;;;;;;;;;10.70;99.90;;;;;;5180026;27;20044;-41
2023/10/24 04:21:29;;;;;;;;;;;10.70;99.90;;;;;;5179973;27;19973;-41
2023/10/24 04:23:54;;;;;;;;;;;10.70;99.90;;;;;;5179807;27;19922;-40
2023/10/24 04:26:20;;;;;;;;;;;10.80;99.90;;;;;;5179666;27;19923;-41
2023/10/24 04:28:45;;;;;;;;;;;10.80;99.90;;;;;;5179769;27;19923;-41
2023/10/24 04:31:11;;;;;;;;;;;10.70;99.90;;;;;;5161468;27;19930;-41
2023/10/24 04:33:37;;;;;;;;;;;10.80;99.90;;;;;;5179907;27;20373;-41
2023/10/24 04:36:03;;;;;;;;;;;10.80;99.90;;;;;;5179495;27;19922;-41
2023/10/24 04:38:29;;;;;;;;;;;10.80;99.90;;;;;;5179726;27;20343;-41
2023/10/24 04:40:54;;;;;;;;;;;10.80;99.90;;;;;;5179534;27;19961;-41
2023/10/24 04:43:20;;;;;;;;;;;10.80;99.90;;;;;;5160997;27;20421;-41
2023/10/24 04:45:46;;;;;;;;;;;10.80;99.90;;;;;;5179502;27;20413;-41
2023/10/24 04:48:11;;;;;;;;;;;10.80;99.90;;;;;;5179363;27;19922;-41
2023/10/24 04:50:38;;;;;;;;;;;10.80;99.90;;;;;;5179289;27;19922;-41
2023/10/24 04:53:04;;;;;;;;;;;10.80;99.90;;;;;;5160489;27;19927;-41
2023/10/24 04:55:30;;;;;;;;;;;10.90;99.90;;;;;;5179098;27;19930;-40
2023/10/24 04:57:55;;;;;;;;;;;10.90;99.90;;;;;;5180002;27;19948;-41
2023/10/24 05:00:21;;;;;;;;;;;10.90;99.90;;;;;;5179190;27;20362;-41
2023/10/24 05:02:46;;;;;;;;;;;10.90;99.90;;;;;;5178898;27;19926;-41
2023/10/24 05:05:12;;;;;;;;;;;10.90;99.90;;;;;;5178397;27;19930;-40
2023/10/24 05:07:37;;;;;;;;;;;10.90;99.90;;;;;;5178582;27;19929;-41
2023/10/24 05:10:03;;;;;;;;;;;10.90;99.90;;;;;;5178912;27;20025;-41
2023/10/24 05:12:29;;;;;;;;;;;10.90;99.90;;;;;;5179137;27;20009;-41
2023/10/24 05:14:55;;;;;;;;;;;10.90;99.90;;;;;;5178974;27;19978;-41
2023/10/24 05:17:20;;;;;;;;;;;11.00;99.90;;;;;;5178714;27;20033;-40
2023/10/24 05:19:46;;;;;;;;;;;11.00;99.90;;;;;;5178584;27;19922;-41
2023/10/24 05:22:12;;;;;;;;;;;11.00;99.90;;;;;;5178818;27;20017;-41
2023/10/24 05:24:38;;;;;;;;;;;11.00;99.90;;;;;;5178569;27;20017;-41
2023/10/24 05:27:04;;;;;;;;;;;11.00;99.90;;;;;;5178682;27;20022;-41
2023/10/24 05:29:33;;;;;;;;;;;11.00;99.90;;;;;;5160228;27;19930;-41
2023/10/24 05:31:59;;;;;;;;;;;11.10;99.90;;;;;;5178891;27;19945;-40
2023/10/24 05:34:28;;;;;;;;;;;11.00;99.90;;;;;;5178483;27;20361;-41
2023/10/24 05:36:54;;;;;;;;;;;11.10;99.90;;;;;;5178521;27;19971;-42
2023/10/24 05:39:20;;;;;;;;;;;11.10;99.90;;;;;;5160031;27;19926;-41
2023/10/24 05:41:48;;;;;;;;;;;11.10;99.90;;;;;;5178184;27;19950;-41
2023/10/24 05:44:17;;;;;;;;;;;11.10;99.90;;;;;;5178354;27;20369;-41
2023/10/24 05:46:43;;;;;;;;;;;11.10;99.90;;;;;;5178282;27;19923;-41
2023/10/24 05:49:08;;;;;;;;;;;11.10;99.90;;;;;;5178122;27;20029;-41
2023/10/24 05:51:34;;;;;;;;;;;11.10;99.90;;;;;;5177752;27;19923;-41
2023/10/24 05:54:00;;;;;;;;;;;11.10;99.90;;;;;;5177834;27;19923;-41
2023/10/24 05:56:25;;;;;;;;;;;11.10;99.90;;;;;;5178113;27;19930;-41
2023/10/24 05:58:51;;;;;;;;;;;11.10;99.90;;;;;;5178010;27;19929;-41
2023/10/24 06:01:17;;;;;;;;;;;11.10;99.90;;;;;;5177838;27;19923;-41
2023/10/24 06:03:42;;;;;;;;;;;11.10;99.90;;;;;;5177987;27;19929;-41
2023/10/24 06:06:08;;;;;;;;;;;11.10;99.90;;;;;;5177757;27;19937;-41
2023/10/24 06:08:34;;;;;;;;;;;11.10;99.90;;;;;;5177572;27;19934;-41
2023/10/24 06:11:03;;;;;;;;;;;11.10;99.90;;;;;;5177679;27;19922;-41
2023/10/24 06:13:29;;;;;;;;;;;11.10;99.90;;;;;;5177720;27;19930;-41
2023/10/24 06:15:55;;;;;;;;;;;11.10;99.90;;;;;;5177769;27;19922;-41
2023/10/24 06:18:20;;;;;;;;;;;11.10;99.90;;;;;;5177429;27;19930;-41
2023/10/24 06:20:46;;;;;;;;;;;11.10;99.90;;;;;;5177480;27;19922;-41
2023/10/24 06:23:12;;;;;;;;;;;11.10;99.90;;;;;;5177351;27;19930;-41
2023/10/24 06:25:38;;;;;;;;;;;11.10;99.90;;;;;;5177470;27;20377;-41
2023/10/24 06:28:04;;;;;;;;;;;11.00;99.90;;;;;;5177718;27;20014;-41
2023/10/24 06:30:30;;;;;;;;;;;11.10;99.90;;;;;;5158654;27;19966;-41
2023/10/24 06:32:56;;;;;;;;;;;11.10;99.90;;;;;;5177348;27;20013;-41
2023/10/24 06:35:21;;;;;;;;;;;11.00;99.90;;;;;;5177312;27;19981;-41
2023/10/24 06:37:47;;;;;;;;;;;11.10;99.90;;;;;;5176993;27;20021;-41
2023/10/24 06:40:13;;;;;;;;;;;11.00;99.90;;;;;;5158586;27;19922;-41
2023/10/24 06:42:38;;;;;;;;;;;11.00;99.90;;;;;;5177059;27;19924;-41
2023/10/24 06:45:05;;;;;;;;;;;11.10;99.90;;;;;;5177172;27;20029;-41
2023/10/24 06:47:30;;;;;;;;;;;11.10;99.90;;;;;;5176922;27;19923;-41
2023/10/24 06:49:56;;;;;;;;;;;11.00;99.90;;;;;;5177032;27;20383;-41
2023/10/24 06:52:21;;;;;;;;;;;11.10;99.90;;;;;;5158334;27;19922;-41
2023/10/24 06:54:47;;;;;;;;;;;11.10;99.90;;;;;;5176990;27;19927;-41
2023/10/24 06:57:12;;;;;;;;;;;11.10;99.90;;;;;;5176992;27;20022;-41
2023/10/24 06:59:38;;;;;;;;;;;11.10;99.90;;;;;;5176899;27;20322;-41
2023/10/24 07:02:04;;;;;;;;;;;11.10;99.90;;;;;;5176937;27;19926;-41
2023/10/24 07:04:29;;;;;;;;;;;11.20;99.90;;;;;;5176879;27;19966;-41
2023/10/24 07:06:55;;;;;;;;;;;11.20;99.90;;;;;;5176796;27;19929;-41
2023/10/24 07:09:20;;;;;;;;;;;11.20;99.90;;;;;;5176800;27;20299;-41
2023/10/24 07:11:46;;;;;;;;;;;11.20;99.90;;;;;;5176755;27;20266;-41
2023/10/24 07:14:11;;;;;;;;;;;11.20;99.90;;;;;;5176629;27;19967;-41
2023/10/24 07:16:37;;;;;;;;;;;11.20;99.90;;;;;;5176690;27;19930;-41
2023/10/24 07:19:03;;;;;;;;;;;11.20;99.90;;;;;;5176546;27;19929;-41
2023/10/24 07:21:28;;;;;;;;;;;11.20;99.90;;;;;;5176598;27;19968;-41
2023/10/24 07:23:56;;;;;;;;;;;11.20;99.90;;;;;;5176660;27;19927;-41
2023/10/24 07:26:22;;;;;;;;;;;11.20;99.90;;;;;;5176953;27;19923;-41
2023/10/24 07:28:47;;;;;;;;;;;11.20;99.90;;;;;;5177203;27;20321;-41
2023/10/24 07:31:13;;;;;;;;;;;11.20;99.90;;;;;;5181247;27;19930;-41
2023/10/24 07:33:38;;;;;;;;;;;11.30;99.90;;;;;;5180728;27;19984;-41
2023/10/24 07:36:07;;;;;;;;;;;11.20;99.90;;;;;;5180761;27;20002;-41
2023/10/24 07:38:33;;;;;;;;;;;11.30;99.90;;;;;;5180692;27;19930;-41
2023/10/24 07:40:59;;;;;;;;;;;11.30;99.90;;;;;;5180932;27;19923;-41
2023/10/24 07:43:24;;;;;;;;;;;11.30;99.90;;;;;;5180624;27;19922;-41
2023/10/24 07:45:50;;;;;;;;;;;11.30;99.90;;;;;;5180752;27;20014;-41
2023/10/24 07:48:16;;;;;;;;;;;11.30;99.90;;;;;;5180648;27;20013;-41
2023/10/24 07:50:52;;;;;;;;;;;11.30;99.90;;;;;;5180297;27;20013;-41
2023/10/24 07:53:18;;;;;;;;;;;11.30;99.90;;;;;;5180224;27;20359;-41
2023/10/24 07:55:43;;;;;;;;;;;11.30;99.90;;;;;;5180416;27;20342;-41
2023/10/24 07:58:09;;;;;;;;;;;11.30;99.90;;;;;;5180455;27;19927;-40
2023/10/24 08:00:34;;;;;;;;;;;11.30;99.90;;;;;;5180269;27;20285;-41
2023/10/24 08:03:00;;;;;;;;;;;11.30;99.90;;;;;;5180226;27;19930;-42
2023/10/24 08:05:26;;;;;;;;;;;11.30;99.90;;;;;;5180066;27;20021;-41
2023/10/24 08:07:51;;;;;;;;;;;11.30;99.90;;;;;;5180244;27;19923;-41
2023/10/24 08:10:17;;;;;;;;;;;11.30;99.90;;;;;;5180367;27;19929;-41
2023/10/24 08:12:43;;;;;;;;;;;11.30;99.90;;;;;;5161771;27;20373;-41
2023/10/24 08:15:08;;;;;;;;;;;11.30;99.90;;;;;;5180024;27;19922;-41
2023/10/24 08:17:34;;;;;;;;;;;11.40;99.90;;;;;;5179929;27;20372;-41
2023/10/24 08:20:00;;;;;;;;;;;11.40;99.90;;;;;;5179771;27;20013;-41
2023/10/24 08:22:25;;;;;;;;;;;11.40;99.90;;;;;;5180008;27;20399;-41
2023/10/24 08:24:51;;;;;;;;;;;11.30;99.90;;;;;;5179826;27;20334;-41
2023/10/24 08:27:17;;;;;;;;;;;11.30;99.90;;;;;;5179921;27;19923;-41
2023/10/24 08:29:42;;;;;;;;;;;11.30;99.90;;;;;;5179719;27;19969;-41
2023/10/24 08:32:08;;;;;;;;;;;11.30;99.90;;;;;;5179635;27;19970;-41
2023/10/24 08:34:36;;;;;;;;;;;11.30;99.90;;;;;;5179640;27;19930;-41
2023/10/24 08:37:03;;;;;;;;;;;11.40;99.90;;;;;;5161247;27;19930;-41
2023/10/24 08:39:28;;;;;;;;;;;11.40;99.90;;;;;;5179520;27;19927;-41
2023/10/24 08:41:56;;;;;;;;;;;11.40;99.90;;;;;;5179617;27;19927;-41
2023/10/24 08:44:23;;;;;;;;;;;11.40;99.90;;;;;;5179491;27;19922;-41
2023/10/24 08:46:49;;;;;;;;;;;11.40;99.90;;;;;;5179441;27;19926;-42
2023/10/24 08:49:15;;;;;;;;;;;11.40;99.90;;;;;;5179135;27;20354;-41
2023/10/24 08:51:41;;;;;;;;;;;11.40;99.90;;;;;;5160878;27;19922;-41
2023/10/24 08:54:07;;;;;;;;;;;11.40;99.90;;;;;;5179228;27;19946;-42
2023/10/24 08:56:34;;;;;;;;;;;11.50;99.90;;;;;;5179313;27;19937;-41
2023/10/24 08:59:00;;;;;;;;;;;11.50;99.90;;;;;;5160858;27;19927;-41
2023/10/24 09:01:26;;;;;;;;;;;11.50;99.90;;;;;;5179217;27;19929;-42
2023/10/24 09:03:52;;;;;;;;;;;11.50;99.90;;;;;;5179108;27;19923;-42
2023/10/24 09:06:18;;;;;;;;;;;11.50;99.90;;;;;;5179184;27;19929;-41
2023/10/24 09:08:43;;;;;;;;;;;11.50;99.90;;;;;;5160847;27;19927;-41
2023/10/24 09:11:09;;;;;;;;;;;11.50;99.90;;;;;;5179021;27;19923;-41
2023/10/24 09:13:34;;;;;;;;;;;11.40;99.90;;;;;;5178895;27;19923;-41
2023/10/24 09:16:04;;;;;;;;;;;11.50;99.90;;;;;;5178676;27;19945;-42
2023/10/24 09:18:29;;;;;;;;;;;11.50;99.90;;;;;;5178878;27;19930;-42
2023/10/24 09:20:55;;;;;;;;;;;11.50;99.90;;;;;;5160481;27;20277;-42
2023/10/24 09:23:20;;;;;;;;;;;11.50;99.90;;;;;;5178718;27;20331;-41
2023/10/24 09:25:48;;;;;;;;;;;11.50;99.90;;;;;;5160088;27;19923;-41
2023/10/24 09:28:17;;;;;;;;;;;11.50;99.90;;;;;;5178557;27;19922;-41
2023/10/24 09:30:43;;;;;;;;;;;11.50;99.90;;;;;;5178367;27;20370;-42
2023/10/24 09:33:08;;;;;;;;;;;11.50;99.90;;;;;;5178172;27;19930;-41
2023/10/24 09:35:37;;;;;;;;;;;11.60;99.90;;;;;;5178886;27;19944;-42
2023/10/24 09:38:05;;;;;;;;;;;11.60;99.90;;;;;;5178461;27;19929;-42
2023/10/24 09:40:35;;;;;;;;;;;11.60;99.90;;;;;;5178264;27;19923;-42
2023/10/24 09:43:03;;;;;;;;;;;11.50;99.90;;;;;;5178177;27;20362;-41
2023/10/24 09:45:29;;;;;;;;;;;11.50;99.90;;;;;;5178219;27;19922;-42
2023/10/24 09:47:55;;;;;;;;;;;11.50;99.90;;;;;;5178308;27;19929;-41
2023/10/24 09:50:21;;;;;;;;;;;11.60;99.90;;;;;;5159607;27;19967;-42
2023/10/24 09:52:47;;;;;;;;;;;11.60;99.90;;;;;;5177277;27;20307;-41
2023/10/24 09:55:13;;;;;;;;;;;11.50;99.90;;;;;;5178326;27;19927;-41
2023/10/24 09:57:39;;;;;;;;;;;11.50;99.90;;;;;;5178118;27;20293;-42
2023/10/24 10:00:10;;;;;;;;;;;11.50;99.90;;;;;;5177957;27;20025;-41
2023/10/24 10:02:40;;;;;;;;;;;11.50;99.90;;;;;;5178100;27;19923;-41
2023/10/24 10:05:06;;;;;;;;;;;11.50;99.90;;;;;;5177876;27;19923;-41
2023/10/24 10:07:32;;;;;;;;;;;11.50;99.90;;;;;;5177738;27;19975;-41
2023/10/24 10:09:58;;;;;;;;;;;11.50;99.90;;;;;;5177966;27;19930;-42
2023/10/24 10:12:24;;;;;;;;;;;11.50;99.90;;;;;;5177629;27;19926;-42
2023/10/24 10:15:10;;;;;;;;;;;11.50;99.90;;;;;;5177539;27;19923;-41
2023/10/24 10:17:44;;;;;;;;;;;11.50;99.90;;;;;;5158763;27;19922;-41
2023/10/24 10:20:19;;;;;;;;;;;11.50;99.90;;;;;;5177735;27;19930;-41
2023/10/24 10:22:44;;;;;;;;;;;11.50;99.90;;;;;;5177527;27;20026;-41
2023/10/24 10:25:38;;;;;;;;;;;11.50;99.90;;;;;;5177279;27;19927;-41
2023/10/24 10:28:16;;;;;;;;;;;11.50;99.90;;;;;;5177508;27;20068;-42
2023/10/24 10:31:00;;;;;;;;;;;11.50;99.90;;;;;;5177650;27;19922;-42
2023/10/24 10:33:26;;;;;;;;;;;11.50;99.90;;;;;;5177323;27;20013;-42
2023/10/24 10:35:56;;;;;;;;;;;11.50;99.90;;;;;;5177401;27;20420;-42
2023/10/24 10:38:35;;;;;;;;;;;11.50;99.90;;;;;;5177349;27;19923;-42
2023/10/24 10:41:32;;;;;;;;;;;11.50;99.90;;;;;;5177370;27;20289;-42
2023/10/24 10:43:59;;;;;;;;;;;11.50;99.90;;;;;;5167915;27;19930;-42
2023/10/24 10:46:33;;;;;;;;;;;11.50;99.90;;;;;;5177183;27;19923;-42
2023/10/24 10:49:02;;;;;;;;;;;11.50;99.90;;;;;;5177313;27;19930;-42
2023/10/24 10:51:29;;;;;;;;;;;11.50;99.90;;;;;;5177123;27;19930;-42
2023/10/24 10:54:17;;;;;;;;;;;11.50;99.90;;;;;;5177005;27;20282;-42
2023/10/24 10:56:43;;;;;;;;;;;11.50;99.90;;;;;;5177029;27;20266;-42
2023/10/24 10:59:09;;;;;;;;;;;11.60;99.90;;;;;;5177025;27;19930;-43
2023/10/24 11:01:47;;;;;;;;;;;11.50;99.90;;;;;;5177234;27;20318;-42
2023/10/24 11:04:14;;;;;;;;;;;11.60;99.90;;;;;;5175993;27;20017;-42
2023/10/24 11:06:41;;;;;;;;;;;11.60;99.90;;;;;;5176806;27;20280;-42
2023/10/24 11:09:10;;;;;;;;;;;11.70;99.90;;;;;;5177396;27;19923;-42
2023/10/24 11:11:39;;;;;;;;;;;11.70;99.90;;;;;;5176819;27;19946;-42
2023/10/24 11:14:14;;;;;;;;;;;11.70;99.90;;;;;;5176732;27;19970;-42
2023/10/24 11:16:44;;;;;;;;;;;11.70;99.90;;;;;;5176699;27;20017;-43
2023/10/24 11:19:16;;;;;;;;;;;11.80;99.90;;;;;;5176520;27;19929;-44
2023/10/24 11:21:44;;;;;;;;;;;11.80;99.90;;;;;;5176434;27;20357;-42
2023/10/24 11:24:10;;;;;;;;;;;11.80;99.90;;;;;;5176638;27;19929;-43
2023/10/24 11:26:36;;;;;;;;;;;11.80;99.90;;;;;;5176435;27;19923;-42
2023/10/24 11:29:01;;;;;;;;;;;11.80;99.90;;;;;;5176461;27;19923;-42
2023/10/24 11:31:27;;;;;;;;;;;11.80;99.90;;;;;;5176388;27;19923;-42
2023/10/24 11:33:53;;;;;;;;;;;11.80;99.90;;;;;;5176373;27;19923;-42
2023/10/24 11:36:18;;;;;;;;;;;11.90;99.90;;;;;;5176509;27;19927;-42
2023/10/24 11:38:44;;;;;;;;;;;11.90;99.90;;;;;;5176480;27;19934;-42
2023/10/24 11:41:10;;;;;;;;;;;11.90;99.90;;;;;;5176517;27;19923;-43
2023/10/24 11:43:35;;;;;;;;;;;11.90;99.90;;;;;;5176368;27;20292;-43
2023/10/24 11:46:01;;;;;;;;;;;11.90;99.90;;;;;;5176648;27;19923;-42
2023/10/24 11:48:26;;;;;;;;;;;11.90;99.90;;;;;;5176360;27;20277;-43
2023/10/24 11:50:52;;;;;;;;;;;11.90;99.90;;;;;;5176823;27;19991;-42
2023/10/24 11:53:21;;;;;;;;;;;11.90;99.90;;;;;;5176203;27;19923;-42
2023/10/24 11:55:48;;;;;;;;;;;11.90;99.90;;;;;;5176375;27;19934;-42
2023/10/24 11:58:13;;;;;;;;;;;11.90;99.90;;;;;;5176120;27;20304;-42
2023/10/24 12:00:40;;;;;;;;;;;11.90;99.90;;;;;;5176124;27;19922;-42
2023/10/24 12:03:05;;;;;;;;;;;11.90;99.90;;;;;;5157909;27;19927;-43
2023/10/24 12:05:32;;;;;;;;;;;11.90;99.90;;;;;;5176301;27;19975;-42
2023/10/24 12:08:00;;;;;;;;;;;12.00;99.90;;;;;;5176223;27;19923;-42
2023/10/24 12:10:30;;;;;;;;;;;12.00;99.90;;;;;;5176090;27;19930;-42
2023/10/24 12:13:03;;;;;;;;;;;11.90;99.90;;;;;;5176206;27;19923;-42
2023/10/24 12:15:29;;;;;;;;;;;11.90;99.90;;;;;;5177901;27;19922;-43
2023/10/24 12:17:56;;;;;;;;;;;11.90;99.90;;;;;;5179824;27;20392;-42
2023/10/24 12:20:22;;;;;;;;;;;11.90;99.90;;;;;;5180183;27;19922;-42
2023/10/24 12:22:48;;;;;;;;;;;11.90;99.90;;;;;;5179966;27;19973;-42
2023/10/24 12:25:17;;;;;;;;;;;11.90;99.90;;;;;;5180053;27;19927;-43
2023/10/24 12:27:46;;;;;;;;;;;11.90;99.90;;;;;;5179886;27;19930;-42
2023/10/24 12:30:15;;;;;;;;;;;11.90;99.90;;;;;;5179726;27;19922;-42
2023/10/24 12:32:43;;;;;;;;;;;11.90;99.90;;;;;;5161575;27;19922;-42
2023/10/24 12:35:09;;;;;;;;;;;11.90;99.90;;;;;;5179787;27;19965;-42
2023/10/24 12:37:35;;;;;;;;;;;11.90;99.90;;;;;;5179683;27;19965;-43
2023/10/24 12:40:02;;;;;;;;;;;11.90;99.90;;;;;;5179496;27;20399;-42
2023/10/24 12:42:28;;;;;;;;;;;11.90;99.90;;;;;;5179531;27;19930;-42
2023/10/24 12:44:54;;;;;;;;;;;11.90;99.90;;;;;;5179298;27;19927;-42
2023/10/24 12:47:20;;;;;;;;;;;11.90;99.90;;;;;;5179431;27;19923;-42
2023/10/24 12:49:46;;;;;;;;;;;12.00;99.90;;;;;;5161471;27;19931;-42
2023/10/24 12:52:12;;;;;;;;;;;11.90;99.90;;;;;;5179158;27;19923;-42
2023/10/24 12:54:37;;;;;;;;;;;12.00;99.90;;;;;;5179518;27;19923;-42
2023/10/24 12:57:03;;;;;;;;;;;12.00;99.90;;;;;;5179266;27;19922;-42
2023/10/24 12:59:29;;;;;;;;;;;12.00;99.90;;;;;;5179080;27;20433;-42
2023/10/24 13:01:55;;;;;;;;;;;12.00;99.90;;;;;;5179277;27;20465;-42
2023/10/24 13:04:21;;;;;;;;;;;12.10;99.90;;;;;;5179110;27;19974;-42
2023/10/24 13:06:47;;;;;;;;;;;12.10;99.90;;;;;;5179103;27;19926;-42
2023/10/24 13:09:13;;;;;;;;;;;12.10;99.90;;;;;;5178863;27;19930;-42
2023/10/24 13:11:41;;;;;;;;;;;12.10;99.90;;;;;;5178943;27;20368;-42
2023/10/24 13:14:07;;;;;;;;;;;12.10;99.90;;;;;;5160544;27;19922;-42
2023/10/24 13:16:33;;;;;;;;;;;12.20;99.90;;;;;;5178982;27;19923;-42
2023/10/24 13:18:58;;;;;;;;;;;12.20;99.90;;;;;;5178935;27;19922;-42
2023/10/24 13:21:24;;;;;;;;;;;12.20;99.90;;;;;;5178858;27;20289;-42
2023/10/24 13:23:50;;;;;;;;;;;12.20;99.90;;;;;;5179030;27;20010;-42
2023/10/24 13:26:15;;;;;;;;;;;12.20;99.90;;;;;;5178053;27;19937;-42
2023/10/24 13:28:41;;;;;;;;;;;12.20;99.90;;;;;;5178352;27;19926;-42
2023/10/24 13:31:06;;;;;;;;;;;12.20;99.90;;;;;;5178907;27;19923;-42
2023/10/24 13:33:32;;;;;;;;;;;12.30;99.90;;;;;;5178499;27;19923;-42
2023/10/24 13:35:58;;;;;;;;;;;12.30;99.90;;;;;;5178631;27;19977;-42
2023/10/24 13:38:23;;;;;;;;;;;12.30;99.90;;;;;;5178549;27;19978;-42
2023/10/24 13:40:49;;;;;;;;;;;12.30;99.90;;;;;;5178543;27;19923;-42
2023/10/24 13:43:14;;;;;;;;;;;12.30;99.90;;;;;;5178356;27;19926;-43
2023/10/24 13:45:40;;;;;;;;;;;12.30;99.90;;;;;;5178393;27;20429;-41
2023/10/24 13:48:05;;;;;;;;;;;12.30;99.90;;;;;;5178653;27;19975;-42
2023/10/24 13:50:31;;;;;;;;;;;12.30;99.90;;;;;;5178107;27;19923;-42
2023/10/24 13:52:57;;;;;;;;;;;12.30;99.90;;;;;;5178177;27;20385;-43
2023/10/24 13:55:22;;;;;;;;;;;12.30;99.90;;;;;;5159760;27;19923;-42
2023/10/24 13:57:48;;;;;;;;;;;12.30;99.90;;;;;;5178057;27;20014;-42
2023/10/24 14:00:14;;;;;;;;;;;12.30;99.90;;;;;;5178104;27;19926;-43
2023/10/24 14:02:39;;;;;;;;;;;12.30;99.90;;;;;;5159408;27;20425;-43
2023/10/24 14:05:05;;;;;;;;;;;12.30;99.90;;;;;;5177918;27;19923;-42
2023/10/24 14:07:31;;;;;;;;;;;12.20;99.90;;;;;;5177905;27;19923;-42
2023/10/24 14:09:57;;;;;;;;;;;12.20;99.90;;;;;;5177696;27;19929;-42
2023/10/24 14:12:22;;;;;;;;;;;12.30;99.90;;;;;;5177832;27;20356;-42